sensor_id;sensor_type;location;lat;lon;timestamp;pressure;altitude;pressure_sealevel;temperature;humidity
8717;BME280;4395;48.554;8.820;2023-05-02T00:01:53;95987.56;;;9.18;100.00
8717;BME280;4395;48.554;8.820;2023-05-02T00:03:56;95963.25;;;8.79;100.00
8717;BME280;4395;48.554;8.820;2023-05-02T00:05:59;95992.94;;;8.89;100.00
8717;BME280;4395;48.554;8.820;2023-05-02T00:08:04;95889.63;;;8.13;100.00
8717;BME280;4395;48.554;8.820;2023-05-02T00:10:07;95991.16;;;8.95;100.00
8717;BME280;4395;48.554;8.820;2023-05-02T00:12:10;95888.06;;;8.29;100.00
8717;BME280;4395;48.554;8.820;2023-05-02T00:14:13;95833.13;;;7.98;100.00
8717;BME280;4395;48.554;8.820;2023-05-02T00:16:16;95763.53;;;7.58;100.00
8717;BME280;4395;48.554;8.820;2023-05-02T00:18:19;95986.81;;;8.77;100.00
8717;BME280;4395;48.554;8.820;2023-05-02T00:20:22;95908.00;;;8.21;100.00
8717;BME280;4395;48.554;8.820;2023-05-02T00:22:25;95838.13;;;7.94;100.00
8717;BME280;4395;48.554;8.820;2023-05-02T00:24:30;95976.91;;;8.78;100.00
8717;BME280;4395;48.554;8.820;2023-05-02T00:26:33;95870.44;;;8.04;100.00
8717;BME280;4395;48.554;8.820;2023-05-02T00:28:36;95593.78;;;6.40;100.00
8717;BME280;4395;48.554;8.820;2023-05-02T00:30:41;95992.53;;;8.69;100.00
8717;BME280;4395;48.554;8.820;2023-05-02T00:32:45;95924.63;;;8.35;100.00
8717;BME280;4395;48.554;8.820;2023-05-02T00:34:48;95989.78;;;8.92;100.00
8717;BME280;4395;48.554;8.820;2023-05-02T00:36:51;95774.34;;;7.51;100.00
8717;BME280;4395;48.554;8.820;2023-05-02T00:38:53;95682.78;;;6.92;100.00
8717;BME280;4395;48.554;8.820;2023-05-02T00:40:58;95990.88;;;8.80;100.00
8717;BME280;4395;48.554;8.820;2023-05-02T00:43:00;95871.19;;;7.88;100.00
8717;BME280;4395;48.554;8.820;2023-05-02T00:45:04;95999.44;;;8.65;100.00
8717;BME280;4395;48.554;8.820;2023-05-02T00:47:07;95991.97;;;8.67;100.00
8717;BME280;4395;48.554;8.820;2023-05-02T00:49:10;95802.41;;;7.37;100.00
8717;BME280;4395;48.554;8.820;2023-05-02T00:51:13;96004.72;;;8.48;100.00
8717;BME280;4395;48.554;8.820;2023-05-02T00:53:17;95902.72;;;7.86;100.00
8717;BME280;4395;48.554;8.820;2023-05-02T00:55:20;96001.28;;;8.64;100.00
8717;BME280;4395;48.554;8.820;2023-05-02T00:57:24;96019.13;;;8.59;100.00
8717;BME280;4395;48.554;8.820;2023-05-02T00:59:27;95800.78;;;7.24;100.00
8717;BME280;4395;48.554;8.820;2023-05-02T01:01:35;95908.78;;;7.82;100.00
8717;BME280;4395;48.554;8.820;2023-05-02T01:03:52;95658.63;;;6.29;100.00
8717;BME280;4395;48.554;8.820;2023-05-02T01:06:14;96002.13;;;8.53;100.00
8717;BME280;4395;48.554;8.820;2023-05-02T01:08:29;96004.03;;;8.41;100.00
8717;BME280;4395;48.554;8.820;2023-05-02T01:10:46;95956.00;;;7.88;100.00
8717;BME280;4395;48.554;8.820;2023-05-02T01:12:57;95857.03;;;7.18;100.00
8717;BME280;4395;48.554;8.820;2023-05-02T01:15:05;95998.69;;;8.18;100.00
8717;BME280;4395;48.554;8.820;2023-05-02T01:17:12;95881.44;;;7.21;100.00
8717;BME280;4395;48.554;8.820;2023-05-02T01:19:22;95933.09;;;7.80;100.00
8717;BME280;4395;48.554;8.820;2023-05-02T01:21:27;96007.06;;;8.33;100.00
8717;BME280;4395;48.554;8.820;2023-05-02T01:23:37;96000.53;;;8.29;100.00
8717;BME280;4395;48.554;8.820;2023-05-02T01:25:54;95982.38;;;8.31;100.00
8717;BME280;4395;48.554;8.820;2023-05-02T01:28:07;96001.31;;;8.53;100.00
8717;BME280;4395;48.554;8.820;2023-05-02T01:30:14;95951.53;;;8.17;100.00
8717;BME280;4395;48.554;8.820;2023-05-02T01:32:20;95928.78;;;7.91;100.00
8717;BME280;4395;48.554;8.820;2023-05-02T01:34:26;96009.38;;;8.53;100.00
8717;BME280;4395;48.554;8.820;2023-05-02T01:36:30;95956.53;;;8.25;100.00
8717;BME280;4395;48.554;8.820;2023-05-02T01:38:34;95999.56;;;8.58;100.00
8717;BME280;4395;48.554;8.820;2023-05-02T01:40:40;95994.34;;;8.52;100.00
8717;BME280;4395;48.554;8.820;2023-05-02T01:42:46;96003.28;;;8.57;100.00
8717;BME280;4395;48.554;8.820;2023-05-02T01:44:50;95998.28;;;8.61;100.00
8717;BME280;4395;48.554;8.820;2023-05-02T01:46:59;95997.94;;;8.57;100.00
8717;BME280;4395;48.554;8.820;2023-05-02T01:49:05;96004.72;;;8.48;100.00
8717;BME280;4395;48.554;8.820;2023-05-02T01:51:10;95960.41;;;8.05;100.00
8717;BME280;4395;48.554;8.820;2023-05-02T01:53:13;96006.47;;;8.31;100.00
8717;BME280;4395;48.554;8.820;2023-05-02T01:55:16;95929.81;;;7.78;100.00
8717;BME280;4395;48.554;8.820;2023-05-02T01:57:19;96005.19;;;8.22;100.00
8717;BME280;4395;48.554;8.820;2023-05-02T01:59:24;96023.13;;;7.98;100.00
8717;BME280;4395;48.554;8.820;2023-05-02T02:01:30;95997.88;;;7.82;100.00
8717;BME280;4395;48.554;8.820;2023-05-02T02:03:35;96009.41;;;7.94;100.00
8717;BME280;4395;48.554;8.820;2023-05-02T02:05:38;95995.66;;;8.02;100.00
8717;BME280;4395;48.554;8.820;2023-05-02T02:07:42;95981.25;;;7.80;100.00
8717;BME280;4395;48.554;8.820;2023-05-02T02:09:46;96000.31;;;7.95;100.00
8717;BME280;4395;48.554;8.820;2023-05-02T02:11:52;96011.84;;;7.96;100.00
8717;BME280;4395;48.554;8.820;2023-05-02T02:14:00;95860.28;;;7.20;100.00
8717;BME280;4395;48.554;8.820;2023-05-02T02:16:10;95968.78;;;7.86;100.00
8717;BME280;4395;48.554;8.820;2023-05-02T02:18:18;96024.69;;;7.64;100.00
8717;BME280;4395;48.554;8.820;2023-05-02T02:20:25;96019.97;;;7.24;100.00
8717;BME280;4395;48.554;8.820;2023-05-02T02:22:29;96019.28;;;7.29;100.00
8717;BME280;4395;48.554;8.820;2023-05-02T02:24:35;96018.69;;;7.27;100.00
8717;BME280;4395;48.554;8.820;2023-05-02T02:26:40;95773.97;;;5.71;100.00
8717;BME280;4395;48.554;8.820;2023-05-02T02:28:42;96017.16;;;7.19;100.00
8717;BME280;4395;48.554;8.820;2023-05-02T02:30:45;95916.31;;;6.73;100.00
8717;BME280;4395;48.554;8.820;2023-05-02T02:32:48;96025.13;;;7.37;100.00
8717;BME280;4395;48.554;8.820;2023-05-02T02:34:51;96024.69;;;7.52;100.00
8717;BME280;4395;48.554;8.820;2023-05-02T02:37:00;95931.13;;;6.99;100.00
8717;BME280;4395;48.554;8.820;2023-05-02T02:39:17;96029.72;;;7.72;100.00
8717;BME280;4395;48.554;8.820;2023-05-02T02:41:48;95937.19;;;7.06;100.00
8717;BME280;4395;48.554;8.820;2023-05-02T02:43:59;96035.06;;;7.72;100.00
8717;BME280;4395;48.554;8.820;2023-05-02T02:46:16;96045.47;;;7.80;100.00
8717;BME280;4395;48.554;8.820;2023-05-02T02:48:31;95944.00;;;6.90;100.00
8717;BME280;4395;48.554;8.820;2023-05-02T02:50:40;96039.59;;;7.60;100.00
8717;BME280;4395;48.554;8.820;2023-05-02T02:52:52;96030.25;;;7.51;100.00
8717;BME280;4395;48.554;8.820;2023-05-02T02:54:59;96055.03;;;7.58;100.00
8717;BME280;4395;48.554;8.820;2023-05-02T02:57:16;96038.63;;;7.42;100.00
8717;BME280;4395;48.554;8.820;2023-05-02T02:59:25;95997.53;;;7.25;100.00
8717;BME280;4395;48.554;8.820;2023-05-02T03:01:30;96049.91;;;7.45;100.00
8717;BME280;4395;48.554;8.820;2023-05-02T03:03:35;95889.78;;;6.30;100.00
8717;BME280;4395;48.554;8.820;2023-05-02T03:05:40;96048.19;;;7.20;100.00
8717;BME280;4395;48.554;8.820;2023-05-02T03:07:44;96006.03;;;6.92;100.00
8717;BME280;4395;48.554;8.820;2023-05-02T03:09:48;96063.66;;;7.18;100.00
8717;BME280;4395;48.554;8.820;2023-05-02T03:11:55;96060.56;;;7.33;100.00
8717;BME280;4395;48.554;8.820;2023-05-02T03:13:59;96030.03;;;7.10;100.00
8717;BME280;4395;48.554;8.820;2023-05-02T03:16:24;95781.84;;;5.66;100.00
8717;BME280;4395;48.554;8.820;2023-05-02T03:18:31;95945.72;;;6.85;100.00
8717;BME280;4395;48.554;8.820;2023-05-02T03:20:34;96069.25;;;7.70;100.00
8717;BME280;4395;48.554;8.820;2023-05-02T03:22:37;95935.72;;;6.80;100.00
8717;BME280;4395;48.554;8.820;2023-05-02T03:24:40;96080.00;;;7.82;100.00
8717;BME280;4395;48.554;8.820;2023-05-02T03:26:47;96084.66;;;7.86;100.00
8717;BME280;4395;48.554;8.820;2023-05-02T03:28:56;95482.56;;;4.09;100.00
8717;BME280;4395;48.554;8.820;2023-05-02T03:31:04;96041.66;;;7.58;100.00
8717;BME280;4395;48.554;8.820;2023-05-02T03:33:11;96086.88;;;7.89;100.00
8717;BME280;4395;48.554;8.820;2023-05-02T03:35:17;96093.41;;;7.93;100.00
8717;BME280;4395;48.554;8.820;2023-05-02T03:37:22;95887.00;;;6.55;100.00
8717;BME280;4395;48.554;8.820;2023-05-02T03:39:25;96091.88;;;7.86;100.00
8717;BME280;4395;48.554;8.820;2023-05-02T03:41:28;96099.44;;;7.89;100.00
8717;BME280;4395;48.554;8.820;2023-05-02T03:43:39;96080.66;;;7.77;100.00
8717;BME280;4395;48.554;8.820;2023-05-02T03:45:41;96106.09;;;7.98;100.00
8717;BME280;4395;48.554;8.820;2023-05-02T03:47:44;96115.28;;;8.02;100.00
8717;BME280;4395;48.554;8.820;2023-05-02T03:49:48;95973.09;;;7.10;100.00
8717;BME280;4395;48.554;8.820;2023-05-02T03:51:54;96060.91;;;7.78;100.00
8717;BME280;4395;48.554;8.820;2023-05-02T03:54:02;96017.94;;;7.50;100.00
8717;BME280;4395;48.554;8.820;2023-05-02T03:56:07;96118.56;;;8.16;100.00
8717;BME280;4395;48.554;8.820;2023-05-02T03:58:21;95988.84;;;7.41;100.00
8717;BME280;4395;48.554;8.820;2023-05-02T04:00:27;96018.53;;;7.52;100.00
8717;BME280;4395;48.554;8.820;2023-05-02T04:02:36;95802.09;;;5.85;100.00
8717;BME280;4395;48.554;8.820;2023-05-02T04:04:42;96128.44;;;8.03;100.00
8717;BME280;4395;48.554;8.820;2023-05-02T04:06:48;96129.28;;;8.16;100.00
8717;BME280;4395;48.554;8.820;2023-05-02T04:08:51;95861.09;;;6.55;100.00
8717;BME280;4395;48.554;8.820;2023-05-02T04:10:55;96128.00;;;8.30;100.00
8717;BME280;4395;48.554;8.820;2023-05-02T04:12:58;96018.53;;;7.63;100.00
8717;BME280;4395;48.554;8.820;2023-05-02T04:15:04;96136.78;;;8.49;100.00
8717;BME280;4395;48.554;8.820;2023-05-02T04:17:09;96127.91;;;8.48;100.00
8717;BME280;4395;48.554;8.820;2023-05-02T04:19:21;96132.34;;;8.54;100.00
8717;BME280;4395;48.554;8.820;2023-05-02T04:21:24;96092.38;;;8.29;100.00
8717;BME280;4395;48.554;8.820;2023-05-02T04:23:27;96142.72;;;8.62;100.00
8717;BME280;4395;48.554;8.820;2023-05-02T04:25:33;96126.97;;;8.31;100.00
8717;BME280;4395;48.554;8.820;2023-05-02T04:27:38;96054.88;;;7.83;100.00
8717;BME280;4395;48.554;8.820;2023-05-02T04:29:47;96152.13;;;9.68;100.00
8717;BME280;4395;48.554;8.820;2023-05-02T04:31:50;96143.84;;;10.66;100.00
8717;BME280;4395;48.554;8.820;2023-05-02T04:33:57;96148.97;;;10.67;100.00
8717;BME280;4395;48.554;8.820;2023-05-02T04:36:05;96150.28;;;11.03;100.00
8717;BME280;4395;48.554;8.820;2023-05-02T04:38:09;96159.09;;;11.20;100.00
8717;BME280;4395;48.554;8.820;2023-05-02T04:40:12;96149.78;;;11.28;100.00
8717;BME280;4395;48.554;8.820;2023-05-02T04:42:17;96153.00;;;10.86;100.00
8717;BME280;4395;48.554;8.820;2023-05-02T04:44:27;96142.63;;;10.56;100.00
8717;BME280;4395;48.554;8.820;2023-05-02T04:46:31;96140.75;;;10.23;100.00
8717;BME280;4395;48.554;8.820;2023-05-02T04:48:34;96092.00;;;9.53;100.00
8717;BME280;4395;48.554;8.820;2023-05-02T04:50:38;96163.59;;;9.81;100.00
8717;BME280;4395;48.554;8.820;2023-05-02T04:52:41;96154.16;;;9.78;100.00
8717;BME280;4395;48.554;8.820;2023-05-02T04:54:44;96113.84;;;9.45;100.00
8717;BME280;4395;48.554;8.820;2023-05-02T04:56:47;96162.41;;;9.60;100.00
8717;BME280;4395;48.554;8.820;2023-05-02T04:58:50;96163.34;;;9.25;100.00
8717;BME280;4395;48.554;8.820;2023-05-02T05:00:53;96131.88;;;9.21;100.00
8717;BME280;4395;48.554;8.820;2023-05-02T05:02:56;95837.72;;;7.04;100.00
8717;BME280;4395;48.554;8.820;2023-05-02T05:05:02;96170.88;;;9.40;100.00
8717;BME280;4395;48.554;8.820;2023-05-02T05:07:06;96175.53;;;8.93;100.00
8717;BME280;4395;48.554;8.820;2023-05-02T05:09:09;96166.16;;;9.19;100.00
8717;BME280;4395;48.554;8.820;2023-05-02T05:11:12;96170.50;;;9.08;100.00
8717;BME280;4395;48.554;8.820;2023-05-02T05:13:16;96188.00;;;8.87;100.00
8717;BME280;4395;48.554;8.820;2023-05-02T05:15:21;96182.78;;;8.81;100.00
8717;BME280;4395;48.554;8.820;2023-05-02T05:17:30;96180.06;;;9.04;100.00
8717;BME280;4395;48.554;8.820;2023-05-02T05:19:34;96139.31;;;8.79;100.00
8717;BME280;4395;48.554;8.820;2023-05-02T05:21:37;96189.34;;;9.25;100.00
8717;BME280;4395;48.554;8.820;2023-05-02T05:23:42;96191.31;;;9.29;100.00
8717;BME280;4395;48.554;8.820;2023-05-02T05:25:50;96180.94;;;9.33;100.00
8717;BME280;4395;48.554;8.820;2023-05-02T05:27:53;96155.09;;;9.15;100.00
8717;BME280;4395;48.554;8.820;2023-05-02T05:29:57;96201.22;;;9.41;100.00
8717;BME280;4395;48.554;8.820;2023-05-02T05:32:01;96203.41;;;9.44;100.00
8717;BME280;4395;48.554;8.820;2023-05-02T05:34:04;96199.56;;;9.40;100.00
8717;BME280;4395;48.554;8.820;2023-05-02T05:36:08;96205.41;;;9.37;100.00
8717;BME280;4395;48.554;8.820;2023-05-02T05:38:11;96137.47;;;8.44;100.00
8717;BME280;4395;48.554;8.820;2023-05-02T05:40:18;96217.84;;;8.67;100.00
8717;BME280;4395;48.554;8.820;2023-05-02T05:42:27;96221.66;;;8.48;100.00
8717;BME280;4395;48.554;8.820;2023-05-02T05:44:34;96212.72;;;8.54;100.00
8717;BME280;4395;48.554;8.820;2023-05-02T05:46:37;96228.09;;;8.94;100.00
8717;BME280;4395;48.554;8.820;2023-05-02T05:48:42;96243.00;;;9.13;100.00
8717;BME280;4395;48.554;8.820;2023-05-02T05:50:45;96236.22;;;9.22;100.00
8717;BME280;4395;48.554;8.820;2023-05-02T05:52:48;96242.16;;;9.36;100.00
8717;BME280;4395;48.554;8.820;2023-05-02T05:54:52;96182.50;;;9.06;100.00
8717;BME280;4395;48.554;8.820;2023-05-02T05:56:57;96248.88;;;9.50;100.00
8717;BME280;4395;48.554;8.820;2023-05-02T05:58:59;96245.50;;;9.55;100.00
8717;BME280;4395;48.554;8.820;2023-05-02T06:01:02;96239.19;;;9.61;100.00
8717;BME280;4395;48.554;8.820;2023-05-02T06:03:05;96247.34;;;9.66;100.00
8717;BME280;4395;48.554;8.820;2023-05-02T06:05:11;96253.03;;;9.70;100.00
8717;BME280;4395;48.554;8.820;2023-05-02T06:07:14;96255.81;;;9.75;100.00
8717;BME280;4395;48.554;8.820;2023-05-02T06:09:18;96246.13;;;9.33;100.00
8717;BME280;4395;48.554;8.820;2023-05-02T06:11:21;96197.91;;;8.98;100.00
8717;BME280;4395;48.554;8.820;2023-05-02T06:13:26;96264.03;;;9.56;100.00
8717;BME280;4395;48.554;8.820;2023-05-02T06:15:32;96263.78;;;9.70;100.00
8717;BME280;4395;48.554;8.820;2023-05-02T06:17:35;96262.59;;;9.77;100.00
8717;BME280;4395;48.554;8.820;2023-05-02T06:19:38;96273.41;;;9.82;100.00
8717;BME280;4395;48.554;8.820;2023-05-02T06:21:40;96280.28;;;9.90;100.00
8717;BME280;4395;48.554;8.820;2023-05-02T06:23:43;96275.81;;;9.95;100.00
8717;BME280;4395;48.554;8.820;2023-05-02T06:25:46;96282.00;;;9.96;100.00
8717;BME280;4395;48.554;8.820;2023-05-02T06:27:48;96285.38;;;10.03;100.00
8717;BME280;4395;48.554;8.820;2023-05-02T06:29:53;96278.50;;;9.95;100.00
8717;BME280;4395;48.554;8.820;2023-05-02T06:31:55;96273.63;;;9.92;100.00
8717;BME280;4395;48.554;8.820;2023-05-02T06:33:58;96284.94;;;9.94;100.00
8717;BME280;4395;48.554;8.820;2023-05-02T06:36:01;96290.75;;;10.03;100.00
8717;BME280;4395;48.554;8.820;2023-05-02T06:38:04;96282.31;;;10.11;100.00
8717;BME280;4395;48.554;8.820;2023-05-02T06:40:08;96288.81;;;10.15;100.00
8717;BME280;4395;48.554;8.820;2023-05-02T06:42:11;96289.06;;;10.14;100.00
8717;BME280;4395;48.554;8.820;2023-05-02T06:44:14;96294.09;;;10.22;100.00
8717;BME280;4395;48.554;8.820;2023-05-02T06:46:18;96295.00;;;10.27;100.00
8717;BME280;4395;48.554;8.820;2023-05-02T06:48:21;96300.22;;;10.34;100.00
8717;BME280;4395;48.554;8.820;2023-05-02T06:50:24;96297.06;;;10.37;100.00
8717;BME280;4395;48.554;8.820;2023-05-02T06:52:27;96303.97;;;10.33;100.00
8717;BME280;4395;48.554;8.820;2023-05-02T06:54:29;96283.09;;;9.83;100.00
8717;BME280;4395;48.554;8.820;2023-05-02T06:56:32;96305.88;;;10.21;100.00
8717;BME280;4395;48.554;8.820;2023-05-02T06:58:35;96292.44;;;10.21;100.00
8717;BME280;4395;48.554;8.820;2023-05-02T07:00:38;96272.03;;;9.28;100.00
8717;BME280;4395;48.554;8.820;2023-05-02T07:02:43;96294.22;;;9.75;100.00
8717;BME280;4395;48.554;8.820;2023-05-02T07:04:46;96301.72;;;10.02;100.00
8717;BME280;4395;48.554;8.820;2023-05-02T07:06:49;96309.91;;;10.35;100.00
8717;BME280;4395;48.554;8.820;2023-05-02T07:08:52;96305.41;;;10.52;100.00
8717;BME280;4395;48.554;8.820;2023-05-02T07:10:55;96303.56;;;10.70;100.00
8717;BME280;4395;48.554;8.820;2023-05-02T07:12:58;96315.47;;;10.90;100.00
8717;BME280;4395;48.554;8.820;2023-05-02T07:15:00;96320.28;;;11.05;100.00
8717;BME280;4395;48.554;8.820;2023-05-02T07:17:03;96099.75;;;9.83;100.00
8717;BME280;4395;48.554;8.820;2023-05-02T07:19:08;96333.31;;;11.30;100.00
8717;BME280;4395;48.554;8.820;2023-05-02T07:21:10;96324.25;;;11.36;100.00
8717;BME280;4395;48.554;8.820;2023-05-02T07:23:13;96330.41;;;11.53;100.00
8717;BME280;4395;48.554;8.820;2023-05-02T07:25:16;96332.63;;;11.56;100.00
8717;BME280;4395;48.554;8.820;2023-05-02T07:27:19;96336.84;;;11.69;100.00
8717;BME280;4395;48.554;8.820;2023-05-02T07:29:22;96339.75;;;11.84;100.00
8717;BME280;4395;48.554;8.820;2023-05-02T07:31:25;96327.50;;;11.94;100.00
8717;BME280;4395;48.554;8.820;2023-05-02T07:33:28;96181.28;;;10.89;100.00
8717;BME280;4395;48.554;8.820;2023-05-02T07:35:32;96337.47;;;11.38;100.00
8717;BME280;4395;48.554;8.820;2023-05-02T07:37:35;96327.94;;;11.30;100.00
8717;BME280;4395;48.554;8.820;2023-05-02T07:39:37;96333.00;;;11.26;100.00
8717;BME280;4395;48.554;8.820;2023-05-02T07:41:40;96331.19;;;11.15;100.00
8717;BME280;4395;48.554;8.820;2023-05-02T07:43:43;96331.59;;;11.41;100.00
8717;BME280;4395;48.554;8.820;2023-05-02T07:45:46;96317.03;;;11.03;100.00
8717;BME280;4395;48.554;8.820;2023-05-02T07:47:49;96330.97;;;11.00;100.00
8717;BME280;4395;48.554;8.820;2023-05-02T07:49:52;96338.69;;;10.80;100.00
8717;BME280;4395;48.554;8.820;2023-05-02T07:51:56;96349.88;;;11.05;100.00
8717;BME280;4395;48.554;8.820;2023-05-02T07:53:59;96333.66;;;11.00;100.00
8717;BME280;4395;48.554;8.820;2023-05-02T07:56:03;96139.88;;;9.89;100.00
8717;BME280;4395;48.554;8.820;2023-05-02T07:58:07;96353.69;;;11.26;100.00
8717;BME280;4395;48.554;8.820;2023-05-02T08:00:10;96352.22;;;11.18;100.00
8717;BME280;4395;48.554;8.820;2023-05-02T08:02:16;96350.00;;;11.49;100.00
8717;BME280;4395;48.554;8.820;2023-05-02T08:04:20;96198.34;;;10.61;100.00
8717;BME280;4395;48.554;8.820;2023-05-02T08:06:23;96358.38;;;11.69;100.00
8717;BME280;4395;48.554;8.820;2023-05-02T08:08:27;96355.38;;;11.49;100.00
8717;BME280;4395;48.554;8.820;2023-05-02T08:10:30;96367.31;;;11.91;100.00
8717;BME280;4395;48.554;8.820;2023-05-02T08:12:37;96366.56;;;11.41;100.00
8717;BME280;4395;48.554;8.820;2023-05-02T08:14:40;96370.88;;;11.42;100.00
8717;BME280;4395;48.554;8.820;2023-05-02T08:16:43;96371.22;;;11.45;100.00
8717;BME280;4395;48.554;8.820;2023-05-02T08:18:47;96370.13;;;11.63;100.00
8717;BME280;4395;48.554;8.820;2023-05-02T08:20:50;96272.19;;;10.92;100.00
8717;BME280;4395;48.554;8.820;2023-05-02T08:22:53;96372.56;;;11.81;100.00
8717;BME280;4395;48.554;8.820;2023-05-02T08:25:00;96381.59;;;11.92;100.00
8717;BME280;4395;48.554;8.820;2023-05-02T08:27:03;96371.44;;;11.77;100.00
8717;BME280;4395;48.554;8.820;2023-05-02T08:29:07;96368.13;;;12.36;100.00
8717;BME280;4395;48.554;8.820;2023-05-02T08:31:11;96368.22;;;12.19;100.00
8717;BME280;4395;48.554;8.820;2023-05-02T08:33:14;96332.53;;;12.34;100.00
8717;BME280;4395;48.554;8.820;2023-05-02T08:35:17;96373.44;;;12.52;100.00
8717;BME280;4395;48.554;8.820;2023-05-02T08:37:20;96366.50;;;12.83;100.00
8717;BME280;4395;48.554;8.820;2023-05-02T08:39:23;96371.38;;;12.60;100.00
8717;BME280;4395;48.554;8.820;2023-05-02T08:41:28;96370.91;;;12.95;100.00
8717;BME280;4395;48.554;8.820;2023-05-02T08:43:32;96369.84;;;12.96;100.00
8717;BME280;4395;48.554;8.820;2023-05-02T08:45:38;96374.72;;;13.21;100.00
8717;BME280;4395;48.554;8.820;2023-05-02T08:47:42;96373.63;;;13.22;100.00
8717;BME280;4395;48.554;8.820;2023-05-02T08:49:45;96321.53;;;12.94;100.00
8717;BME280;4395;48.554;8.820;2023-05-02T08:51:48;96369.19;;;12.83;100.00
8717;BME280;4395;48.554;8.820;2023-05-02T08:53:53;96368.13;;;12.84;100.00
8717;BME280;4395;48.554;8.820;2023-05-02T08:55:56;96371.81;;;13.00;100.00
8717;BME280;4395;48.554;8.820;2023-05-02T08:58:02;96385.31;;;13.64;100.00
8717;BME280;4395;48.554;8.820;2023-05-02T09:00:06;96386.53;;;13.89;100.00
8717;BME280;4395;48.554;8.820;2023-05-02T09:02:15;96360.75;;;14.23;100.00
8717;BME280;4395;48.554;8.820;2023-05-02T09:04:22;96390.75;;;14.22;100.00
8717;BME280;4395;48.554;8.820;2023-05-02T09:06:25;96374.16;;;14.55;100.00
8717;BME280;4395;48.554;8.820;2023-05-02T09:08:28;96391.78;;;14.68;100.00
8717;BME280;4395;48.554;8.820;2023-05-02T09:10:33;96379.41;;;15.12;100.00
8717;BME280;4395;48.554;8.820;2023-05-02T09:12:36;96391.31;;;15.01;100.00
8717;BME280;4395;48.554;8.820;2023-05-02T09:14:42;96389.44;;;15.12;100.00
8717;BME280;4395;48.554;8.820;2023-05-02T09:16:46;96393.50;;;15.15;100.00
8717;BME280;4395;48.554;8.820;2023-05-02T09:18:50;96388.06;;;14.99;100.00
8717;BME280;4395;48.554;8.820;2023-05-02T09:20:53;96387.50;;;14.87;100.00
8717;BME280;4395;48.554;8.820;2023-05-02T09:22:56;96398.72;;;14.43;100.00
8717;BME280;4395;48.554;8.820;2023-05-02T09:24:59;96400.72;;;14.11;100.00
8717;BME280;4395;48.554;8.820;2023-05-02T09:27:03;96405.81;;;14.07;100.00
8717;BME280;4395;48.554;8.820;2023-05-02T09:29:07;96406.75;;;13.44;100.00
8717;BME280;4395;48.554;8.820;2023-05-02T09:31:12;96403.53;;;13.47;100.00
8717;BME280;4395;48.554;8.820;2023-05-02T09:33:25;96405.09;;;13.75;100.00
8717;BME280;4395;48.554;8.820;2023-05-02T09:35:28;96398.63;;;13.76;100.00
8717;BME280;4395;48.554;8.820;2023-05-02T09:37:34;96403.38;;;14.06;100.00
8717;BME280;4395;48.554;8.820;2023-05-02T09:39:37;96403.59;;;14.46;100.00
8717;BME280;4395;48.554;8.820;2023-05-02T09:41:40;96389.66;;;13.70;100.00
8717;BME280;4395;48.554;8.820;2023-05-02T09:43:53;96407.19;;;14.10;100.00
8717;BME280;4395;48.554;8.820;2023-05-02T09:45:57;96412.28;;;14.48;100.00
8717;BME280;4395;48.554;8.820;2023-05-02T09:48:02;96404.63;;;14.40;100.00
8717;BME280;4395;48.554;8.820;2023-05-02T09:50:05;96416.97;;;14.16;100.00
8717;BME280;4395;48.554;8.820;2023-05-02T09:52:10;96412.03;;;14.08;100.00
8717;BME280;4395;48.554;8.820;2023-05-02T09:54:13;96410.44;;;14.64;100.00
8717;BME280;4395;48.554;8.820;2023-05-02T09:56:17;96301.59;;;14.32;100.00
8717;BME280;4395;48.554;8.820;2023-05-02T09:58:20;96384.25;;;14.90;100.00
8717;BME280;4395;48.554;8.820;2023-05-02T10:00:37;96405.44;;;16.00;100.00
8717;BME280;4395;48.554;8.820;2023-05-02T10:02:41;96323.66;;;15.72;100.00
8717;BME280;4395;48.554;8.820;2023-05-02T10:04:46;96417.34;;;16.09;100.00
8717;BME280;4395;48.554;8.820;2023-05-02T10:06:50;96399.66;;;14.79;100.00
8717;BME280;4395;48.554;8.820;2023-05-02T10:08:53;96411.16;;;15.83;100.00
8717;BME280;4395;48.554;8.820;2023-05-02T10:10:58;96407.75;;;16.42;96.11
8717;BME280;4395;48.554;8.820;2023-05-02T10:13:02;96440.53;;;16.66;91.90
8717;BME280;4395;48.554;8.820;2023-05-02T10:15:07;96414.66;;;15.99;93.69
8717;BME280;4395;48.554;8.820;2023-05-02T10:17:13;96330.16;;;15.21;93.48
8717;BME280;4395;48.554;8.820;2023-05-02T10:19:23;96407.38;;;15.64;94.19
8717;BME280;4395;48.554;8.820;2023-05-02T10:21:27;96414.44;;;15.65;94.71
8717;BME280;4395;48.554;8.820;2023-05-02T10:23:31;96415.16;;;15.20;97.01
8717;BME280;4395;48.554;8.820;2023-05-02T10:25:35;96400.53;;;15.16;100.00
8717;BME280;4395;48.554;8.820;2023-05-02T10:27:38;96413.84;;;16.03;96.99
8717;BME280;4395;48.554;8.820;2023-05-02T10:29:41;96408.22;;;16.59;93.76
8717;BME280;4395;48.554;8.820;2023-05-02T10:31:44;96396.44;;;17.33;88.70
8717;BME280;4395;48.554;8.820;2023-05-02T10:33:50;96314.91;;;15.96;88.46
8717;BME280;4395;48.554;8.820;2023-05-02T10:35:53;96401.63;;;16.11;93.43
8717;BME280;4395;48.554;8.820;2023-05-02T10:37:57;96405.91;;;16.27;94.23
8717;BME280;4395;48.554;8.820;2023-05-02T10:40:02;96404.66;;;15.79;96.50
8717;BME280;4395;48.554;8.820;2023-05-02T10:42:06;96404.88;;;15.17;99.47
8717;BME280;4395;48.554;8.820;2023-05-02T10:44:10;96332.84;;;14.85;97.22
8717;BME280;4395;48.554;8.820;2023-05-02T10:46:29;96403.25;;;15.56;99.16
8717;BME280;4395;48.554;8.820;2023-05-02T10:48:32;96395.13;;;16.07;96.24
8717;BME280;4395;48.554;8.820;2023-05-02T10:50:42;96192.41;;;14.43;96.49
8717;BME280;4395;48.554;8.820;2023-05-02T10:52:47;96399.00;;;17.15;89.80
8717;BME280;4395;48.554;8.820;2023-05-02T10:54:51;96404.00;;;16.97;83.22
8717;BME280;4395;48.554;8.820;2023-05-02T10:57:01;96393.69;;;16.94;82.92
8717;BME280;4395;48.554;8.820;2023-05-02T10:59:29;96391.22;;;17.37;79.51
8717;BME280;4395;48.554;8.820;2023-05-02T11:01:35;96399.84;;;17.83;77.54
8717;BME280;4395;48.554;8.820;2023-05-02T11:03:55;96396.69;;;18.00;79.13
8717;BME280;4395;48.554;8.820;2023-05-02T11:06:05;96395.28;;;18.31;77.16
8717;BME280;4395;48.554;8.820;2023-05-02T11:08:29;96395.78;;;18.62;76.21
8717;BME280;4395;48.554;8.820;2023-05-02T11:10:35;96390.91;;;17.78;75.18
8717;BME280;4395;48.554;8.820;2023-05-02T11:12:45;96376.38;;;18.16;77.88
8717;BME280;4395;48.554;8.820;2023-05-02T11:14:49;96382.84;;;18.25;76.05
8717;BME280;4395;48.554;8.820;2023-05-02T11:17:05;96141.03;;;15.73;79.37
8717;BME280;4395;48.554;8.820;2023-05-02T11:19:09;96396.13;;;17.35;80.83